Time;durP1;ratioP1;P1;durP2;ratioP2;P2;SDS_P1;SDS_P2;PMS_P1;PMS_P2;Temp;Humidity;BMP_temperature;BMP_pressure;BME280_temperature;BME280_humidity;BME280_pressure;Samples;Min_cycle;Max_cycle;Signal;HPM_P1;HPM_P2
2023/02/26 00:00:19;;;;;;;8.63;3.45;;;;;;;4.27;100.00;101452.13;4949599;28;20484;-79
2023/02/26 00:02:47;;;;;;;13.77;3.60;;;;;;;4.25;100.00;101451.38;4949600;28;20090;-79
2023/02/26 00:05:15;;;;;;;8.32;2.97;;;;;;;4.26;100.00;101455.69;4946740;28;20105;-79
2023/02/26 00:07:41;;;;;;;7.95;3.22;;;;;;;4.25;100.00;101453.16;4940656;28;20046;-79
2023/02/26 00:10:10;;;;;;;12.57;4.55;;;;;;;4.26;100.00;101455.69;4967531;28;20037;-80
2023/02/26 00:12:36;;;;;;;9.05;2.63;;;;;;;4.26;100.00;101453.06;4965446;28;20117;-79
2023/02/26 00:15:03;;;;;;;8.02;3.03;;;;;;;4.26;100.00;101449.59;4949474;28;20637;-79
2023/02/26 00:17:41;;;;;;;9.02;3.63;;;;;;;4.27;100.00;101449.53;4942713;28;20502;-80
2023/02/26 00:20:10;;;;;;;10.32;3.38;;;;;;;4.27;100.00;101459.16;4948780;28;20484;-79
2023/02/26 00:22:37;;;;;;;16.38;4.20;;;;;;;4.25;100.00;101463.63;4952860;28;20339;-79
2023/02/26 00:25:03;;;;;;;8.13;2.83;;;;;;;4.25;100.00;101469.72;4951013;28;20439;-79
2023/02/26 00:27:30;;;;;;;8.57;3.17;;;;;;;4.24;100.00;101469.78;4951102;28;20046;-79
2023/02/26 00:29:55;;;;;;;11.32;3.55;;;;;;;4.26;100.00;101479.25;4962306;28;20030;-79
2023/02/26 00:32:22;;;;;;;11.32;3.22;;;;;;;4.27;100.00;101477.47;4966663;28;20473;-79
2023/02/26 00:34:48;;;;;;;9.15;3.10;;;;;;;4.25;100.00;101485.41;4942018;28;20062;-79
2023/02/26 00:38:00;;;;;;;8.45;3.58;;;;;;;4.24;100.00;101481.09;4944475;28;20037;-79
2023/02/26 00:40:44;;;;;;;13.32;3.03;;;;;;;4.24;100.00;101481.09;4871415;29;20041;-80
2023/02/26 00:43:26;;;;;;;7.22;2.80;;;;;;;4.22;100.00;101475.94;4934764;28;20503;-79
2023/02/26 00:46:00;;;;;;;9.00;3.05;;;;;;;4.22;100.00;101477.72;4946764;28;20035;-79
2023/02/26 00:48:54;;;;;;;9.38;2.65;;;;;;;4.29;100.00;101480.84;4947775;28;20046;-79
2023/02/26 00:51:35;;;;;;;8.43;2.92;;;;;;;4.31;100.00;101479.00;4939847;28;20175;-79
2023/02/26 00:54:03;;;;;;;13.55;3.28;;;;;;;4.29;100.00;101481.72;4948348;28;20153;-80
2023/02/26 00:56:30;;;;;;;9.32;2.50;;;;;;;4.28;100.00;101482.66;4969895;28;20049;-80
2023/02/26 00:58:56;;;;;;;7.05;1.75;;;;;;;4.29;100.00;101486.94;4964419;28;20047;-80
2023/02/26 01:01:22;;;;;;;11.00;2.58;;;;;;;4.27;100.00;101480.09;4951408;28;20105;-79
2023/02/26 01:03:48;;;;;;;11.48;3.13;;;;;;;4.29;100.00;101481.72;4963768;28;20038;-79
2023/02/26 01:06:17;;;;;;;6.03;2.22;;;;;;;4.24;100.00;101477.63;4892895;28;20030;-79
2023/02/26 01:08:58;;;;;;;8.10;2.63;;;;;;;4.29;100.00;101480.84;4934164;28;20038;-79
2023/02/26 01:11:24;;;;;;;7.43;2.63;;;;;;;4.29;100.00;101480.84;4950404;28;20042;-79
2023/02/26 01:13:50;;;;;;;8.02;2.35;;;;;;;4.31;100.00;101487.72;4965066;28;20026;-79
2023/02/26 01:16:21;;;;;;;8.85;3.10;;;;;;;4.34;100.00;101489.31;4951641;28;20038;-79
2023/02/26 01:18:52;;;;;;;6.20;2.47;;;;;;;4.38;100.00;101482.16;4951316;28;20030;-79
2023/02/26 01:21:31;;;;;;;8.35;2.38;;;;;;;4.41;100.00;101488.06;4941235;28;20045;-79
2023/02/26 01:24:00;;;;;;;8.20;2.25;;;;;;;4.44;100.00;101487.91;4949400;28;20061;-80
2023/02/26 01:26:28;;;;;;;9.77;2.20;;;;;;;4.50;100.00;101496.41;4960788;28;20046;-79
2023/02/26 01:28:54;;;;;;;8.85;2.53;;;;;;;4.51;100.00;101501.56;4935096;28;20629;-79
2023/02/26 01:31:50;;;;;;;11.10;2.60;;;;;;;4.61;100.00;101487.97;4963294;28;20461;-79
2023/02/26 01:34:21;;;;;;;7.03;2.08;;;;;;;4.62;100.00;101492.31;4957491;28;20051;-79
2023/02/26 01:37:01;;;;;;;6.50;1.98;;;;;;;4.61;100.00;101499.31;4936260;28;20387;-79
2023/02/26 01:39:36;;;;;;;18.38;2.85;;;;;;;4.58;100.00;101500.31;4966308;28;20035;-79
2023/02/26 01:42:20;;;;;;;8.63;2.72;;;;;;;4.54;100.00;101504.00;4949655;28;20030;-79
2023/02/26 01:45:02;;;;;;;12.40;3.58;;;;;;;4.49;100.00;101505.19;4917005;28;20046;-79
2023/02/26 01:47:46;;;;;;;12.85;2.38;;;;;;;4.47;100.00;101507.88;4949542;28;20044;-79
2023/02/26 01:50:20;;;;;;;8.15;1.70;;;;;;;4.41;100.00;101514.25;4964165;28;20035;-79
2023/02/26 01:52:46;;;;;;;5.95;1.77;;;;;;;4.33;100.00;101508.59;4874131;28;20038;-80
2023/02/26 01:55:14;;;;;;;8.10;1.27;;;;;;;4.35;100.00;101501.47;4929378;29;20106;-79
2023/02/26 01:57:40;;;;;;;2.75;0.93;;;;;;;4.30;100.00;101504.31;4959233;28;20054;-79
2023/02/26 02:00:07;;;;;;;2.72;0.70;;;;;;;4.26;100.00;101508.03;4949464;28;20035;-79
2023/02/26 02:02:38;;;;;;;5.10;0.90;;;;;;;4.25;100.00;101502.88;4948085;28;20167;-79
2023/02/26 02:05:16;;;;;;;6.82;1.17;;;;;;;4.25;100.00;101508.97;4956925;28;20523;-79
2023/02/26 02:07:42;;;;;;;5.60;1.15;;;;;;;4.19;100.00;101514.47;4964873;28;20090;-79
2023/02/26 02:10:08;;;;;;;5.10;0.95;;;;;;;4.17;100.00;101509.31;4932374;29;20032;-79
2023/02/26 02:12:45;;;;;;;7.63;0.95;;;;;;;4.19;100.00;101512.72;4948014;28;20062;-78
2023/02/26 02:15:34;;;;;;;2.80;0.70;;;;;;;4.17;100.00;101517.16;4947825;28;20062;-79
2023/02/26 02:18:19;;;;;;;8.70;1.10;;;;;;;4.13;100.00;101499.94;4926388;29;20114;-79
2023/02/26 02:21:14;;;;;;;2.90;0.90;;;;;;;4.00;100.00;101507.53;4953349;28;20035;-79
2023/02/26 02:23:54;;;;;;;4.97;0.73;;;;;;;3.95;100.00;101517.41;4911125;29;20044;-79
2023/02/26 02:26:48;;;;;;;7.10;0.80;;;;;;;3.91;100.00;101514.09;4955954;28;20174;-78
2023/02/26 02:29:32;;;;;;;2.75;0.68;;;;;;;3.84;100.00;101512.66;4951134;28;20031;-79
2023/02/26 02:32:14;;;;;;;5.53;0.75;;;;;;;3.83;100.00;101518.81;4944157;28;20070;-79
2023/02/26 02:34:57;;;;;;;9.48;2.67;;;;;;;3.83;100.00;101511.84;4955344;28;20051;-79
2023/02/26 02:37:29;;;;;;;14.55;1.42;;;;;;;3.80;100.00;101513.75;4952185;28;20412;-78
2023/02/26 02:40:07;;;;;;;9.77;1.35;;;;;;;3.71;100.00;101508.03;4951566;28;20107;-79
2023/02/26 02:42:45;;;;;;;3.78;0.95;;;;;;;3.69;100.00;101512.50;4930228;28;20110;-79
2023/02/26 02:45:17;;;;;;;5.68;1.20;;;;;;;3.64;100.00;101513.63;4947885;28;20473;-79
2023/02/26 02:47:49;;;;;;;6.30;0.80;;;;;;;3.67;100.00;101514.34;4950836;28;20066;-78
2023/02/26 02:50:30;;;;;;;2.80;0.43;;;;;;;3.69;100.00;101515.13;4934958;29;20040;-79
2023/02/26 02:53:02;;;;;;;3.70;0.85;;;;;;;3.82;100.00;101510.13;4953160;28;20034;-78
2023/02/26 02:55:33;;;;;;;5.07;1.00;;;;;;;3.88;100.00;101522.06;4947131;28;20039;-79
2023/02/26 02:58:17;;;;;;;9.85;1.02;;;;;;;3.93;100.00;101524.47;4955198;28;20039;-79
2023/02/26 03:00:50;;;;;;;6.72;0.85;;;;;;;3.93;100.00;101530.56;4943744;28;20509;-79
2023/02/26 03:03:29;;;;;;;5.88;0.90;;;;;;;3.92;100.00;101526.22;4949345;28;20051;-79
2023/02/26 03:05:55;;;;;;;16.90;1.08;;;;;;;3.93;100.00;101530.56;4949428;28;20035;-79
2023/02/26 03:08:27;;;;;;;7.43;1.08;;;;;;;3.94;100.00;101527.00;4950064;28;20039;-79
2023/02/26 03:10:52;;;;;;;6.95;0.90;;;;;;;3.90;100.00;101532.47;4948410;28;20141;-79
2023/02/26 03:13:23;;;;;;;7.22;0.93;;;;;;;3.88;100.00;101537.78;4928818;29;20043;-79
2023/02/26 03:16:12;;;;;;;9.88;0.88;;;;;;;3.85;100.00;101533.50;4942376;28;20062;-79
2023/02/26 03:19:06;;;;;;;5.80;1.08;;;;;;;3.81;100.00;101534.59;4945348;28;20039;-79
2023/02/26 03:21:37;;;;;;;3.35;0.80;;;;;;;3.74;100.00;101540.19;4964800;28;20097;-79
2023/02/26 03:24:09;;;;;;;4.57;1.30;;;;;;;3.60;100.00;101542.53;4934756;29;20031;-79
2023/02/26 03:26:43;;;;;;;4.97;1.08;;;;;;;3.43;100.00;101538.09;4941824;28;20676;-79
2023/02/26 03:29:19;;;;;;;4.13;0.85;;;;;;;3.34;100.00;101531.50;4942810;28;20035;-79
2023/02/26 03:31:59;;;;;;;3.40;0.95;;;;;;;3.31;100.00;101533.41;4947195;28;20050;-78
2023/02/26 03:34:33;;;;;;;8.77;1.35;;;;;;;3.29;100.00;101530.88;4933183;29;20062;-79
2023/02/26 03:37:25;;;;;;;6.03;1.73;;;;;;;3.28;100.00;101536.19;4932336;29;20039;-79
2023/02/26 03:39:55;;;;;;;4.68;1.17;;;;;;;3.23;100.00;101528.53;4947898;28;20537;-79
2023/02/26 03:42:31;;;;;;;6.80;1.20;;;;;;;3.22;100.00;101532.06;4938491;28;20523;-79
2023/02/26 03:45:06;;;;;;;10.13;1.30;;;;;;;3.16;100.00;101527.97;4951344;28;20492;-79
2023/02/26 03:47:35;;;;;;;8.23;1.08;;;;;;;3.09;100.00;101530.00;4949819;28;20035;-79
2023/02/26 03:50:10;;;;;;;4.60;1.42;;;;;;;3.05;100.00;101535.44;4938868;28;20095;-79
2023/02/26 03:52:49;;;;;;;6.50;1.30;;;;;;;2.99;100.00;101539.16;4947237;28;20039;-79
2023/02/26 03:55:56;;;;;;;1.63;0.80;;;;;;;2.94;100.00;101535.91;4913371;29;20078;-79
2023/02/26 03:58:41;;;;;;;2.15;0.95;;;;;;;2.91;100.00;101546.50;4954254;28;20061;-79
2023/02/26 04:01:35;;;;;;;4.82;1.00;;;;;;;2.91;100.00;101541.25;4952581;28;20096;-79
2023/02/26 04:04:13;;;;;;;9.63;1.90;;;;;;;2.91;100.00;101547.34;4947762;28;20030;-79
2023/02/26 04:06:41;;;;;;;9.70;1.30;;;;;;;2.87;100.00;101552.78;4951748;28;20049;-79
2023/02/26 04:09:07;;;;;;;6.03;1.23;;;;;;;2.80;100.00;101545.16;4952680;28;20066;-79
2023/02/26 04:11:36;;;;;;;9.00;1.40;;;;;;;2.77;100.00;101555.75;4957754;28;20551;-78
2023/02/26 04:14:02;;;;;;;7.32;1.70;;;;;;;2.74;100.00;101553.28;4964031;28;20054;-79
2023/02/26 04:16:29;;;;;;;3.60;1.20;;;;;;;2.70;100.00;101556.94;4950849;28;20027;-79
2023/02/26 04:18:55;;;;;;;6.45;1.23;;;;;;;2.68;100.00;101558.75;4948623;28;20035;-79
2023/02/26 04:21:22;;;;;;;5.45;0.88;;;;;;;2.68;100.00;101564.84;4947526;28;20037;-79
2023/02/26 04:23:48;;;;;;;7.60;0.85;;;;;;;2.62;100.00;101561.63;4932946;28;20181;-79
2023/02/26 04:26:13;;;;;;;5.78;0.77;;;;;;;2.56;100.00;101558.38;4950155;28;20105;-79
2023/02/26 04:28:41;;;;;;;8.85;1.10;;;;;;;2.53;100.00;101573.31;4932610;28;20083;-79
2023/02/26 04:31:09;;;;;;;8.57;1.33;;;;;;;2.52;100.00;101579.44;4943129;28;20080;-79
2023/02/26 04:33:34;;;;;;;6.57;0.90;;;;;;;2.47;100.00;101580.47;4934351;28;20039;-79
2023/02/26 04:36:01;;;;;;;5.80;2.03;;;;;;;2.46;100.00;101583.16;4961547;28;20503;-79
2023/02/26 04:38:27;;;;;;;6.13;1.25;;;;;;;2.49;100.00;101588.25;4953170;28;20039;-79
2023/02/26 04:40:53;;;;;;;5.13;0.80;;;;;;;2.54;100.00;101588.91;4950416;28;20110;-80
2023/02/26 04:43:19;;;;;;;5.20;1.35;;;;;;;2.56;100.00;101591.47;4931171;28;20149;-79
2023/02/26 04:45:55;;;;;;;7.38;1.15;;;;;;;2.57;100.00;101583.56;4954671;28;20113;-78
2023/02/26 04:48:21;;;;;;;2.50;0.75;;;;;;;2.60;100.00;101587.78;4937663;28;20034;-79
2023/02/26 04:50:47;;;;;;;6.95;1.25;;;;;;;2.55;100.00;101590.59;4943669;28;20030;-79
2023/02/26 04:53:13;;;;;;;3.30;1.10;;;;;;;2.52;100.00;101595.94;4942753;28;20491;-79
2023/02/26 04:55:42;;;;;;;9.35;0.88;;;;;;;2.54;100.00;101603.72;4947766;28;20031;-78
2023/02/26 04:58:08;;;;;;;5.18;1.23;;;;;;;2.52;100.00;101603.78;4940066;28;20031;-79
2023/02/26 05:00:35;;;;;;;6.45;1.17;;;;;;;2.52;100.00;101598.56;4949279;28;20082;-79
2023/02/26 05:03:03;;;;;;;6.20;1.08;;;;;;;2.49;100.00;101603.91;4938437;28;20054;-79
2023/02/26 05:05:28;;;;;;;4.97;1.20;;;;;;;2.46;100.00;101606.63;4943507;28;20035;-79
2023/02/26 05:07:55;;;;;;;4.65;1.10;;;;;;;2.46;100.00;101606.63;4949168;29;20038;-79
2023/02/26 05:10:22;;;;;;;6.40;1.70;;;;;;;2.46;100.00;101609.25;4912458;28;20484;-79
2023/02/26 05:12:48;;;;;;;5.40;1.33;;;;;;;2.44;100.00;101609.31;4952035;29;20035;-79
2023/02/26 05:15:14;;;;;;;6.65;1.55;;;;;;;2.39;100.00;101610.44;4933228;29;20035;-79
2023/02/26 05:17:42;;;;;;;5.95;1.23;;;;;;;2.27;100.00;101601.31;4949930;28;20046;-79
2023/02/26 05:20:09;;;;;;;9.18;1.45;;;;;;;2.23;100.00;101608.41;4920667;29;20039;-79
2023/02/26 05:22:39;;;;;;;6.57;1.27;;;;;;;2.18;100.00;101608.59;4930220;29;20032;-79
2023/02/26 05:25:05;;;;;;;8.82;1.40;;;;;;;2.14;100.00;101612.25;4938113;28;20034;-79
2023/02/26 05:27:32;;;;;;;7.30;1.65;;;;;;;2.13;100.00;101613.16;4932847;29;20064;-79
2023/02/26 05:29:58;;;;;;;8.68;1.85;;;;;;;2.14;100.00;101613.97;4951465;28;20058;-79
2023/02/26 05:32:24;;;;;;;5.53;1.50;;;;;;;2.09;100.00;101611.56;4950542;29;20484;-79
2023/02/26 05:34:49;;;;;;;7.50;1.30;;;;;;;2.05;100.00;101618.69;4951689;29;20031;-79
2023/02/26 05:37:15;;;;;;;5.75;1.70;;;;;;;2.05;100.00;101625.63;4934873;29;20447;-79
2023/02/26 05:39:41;;;;;;;9.30;1.40;;;;;;;2.07;100.00;101632.47;4953148;28;20020;-79
2023/02/26 05:42:07;;;;;;;8.27;1.23;;;;;;;2.07;100.00;101640.31;4948195;29;20042;-78
2023/02/26 05:44:34;;;;;;;8.90;1.73;;;;;;;2.04;100.00;101640.44;4931774;29;20415;-78
2023/02/26 05:47:01;;;;;;;6.93;1.20;;;;;;;1.95;100.00;101639.03;4937209;28;20110;-79
2023/02/26 05:49:27;;;;;;;4.70;1.05;;;;;;;1.94;100.00;101642.53;4952861;29;20121;-79
2023/02/26 05:51:53;;;;;;;3.55;1.25;;;;;;;1.92;100.00;101660.00;4948560;28;20420;-78
2023/02/26 05:54:18;;;;;;;4.25;1.40;;;;;;;1.91;100.00;101655.69;4939824;28;20488;-79
2023/02/26 05:56:44;;;;;;;4.75;1.08;;;;;;;1.94;100.00;101652.13;4952428;28;20042;-79
2023/02/26 05:59:10;;;;;;;4.47;1.17;;;;;;;1.96;100.00;101651.16;4960924;28;20101;-79
2023/02/26 06:01:36;;;;;;;7.65;1.63;;;;;;;1.99;100.00;101647.59;4940222;28;20038;-78
2023/02/26 06:04:04;;;;;;;6.93;1.42;;;;;;;2.04;100.00;101650.03;4953227;28;20415;-79
2023/02/26 06:06:30;;;;;;;7.45;1.40;;;;;;;2.10;100.00;101653.22;4952531;28;20105;-79
2023/02/26 06:08:55;;;;;;;9.75;2.35;;;;;;;2.12;100.00;101654.94;4952749;28;20039;-79
2023/02/26 06:11:21;;;;;;;5.95;1.20;;;;;;;2.13;100.00;101652.28;4952056;28;20045;-81
2023/02/26 06:13:48;;;;;;;4.55;1.38;;;;;;;2.09;100.00;101659.38;4968171;28;20041;-81
2023/02/26 06:16:14;;;;;;;7.50;1.85;;;;;;;2.06;100.00;101656.03;4972641;28;20909;-81
2023/02/26 06:18:40;;;;;;;7.00;1.30;;;;;;;2.06;100.00;101659.47;4952158;28;20049;-81
2023/02/26 06:21:08;;;;;;;7.00;1.50;;;;;;;2.06;100.00;101664.69;4971735;28;20517;-81
2023/02/26 06:23:34;;;;;;;6.72;1.45;;;;;;;2.06;100.00;101664.69;4970763;28;20065;-81
2023/02/26 06:25:59;;;;;;;9.23;2.65;;;;;;;2.08;100.00;101657.69;4949588;29;20042;-79
2023/02/26 06:28:25;;;;;;;4.32;1.25;;;;;;;2.12;100.00;101663.59;4967646;28;20046;-79
2023/02/26 06:30:52;;;;;;;7.07;1.90;;;;;;;2.09;100.00;101668.94;4976276;28;20031;-79
2023/02/26 06:33:18;;;;;;;7.53;1.52;;;;;;;2.07;100.00;101674.22;4963285;28;20499;-79
2023/02/26 06:35:44;;;;;;;6.97;1.80;;;;;;;2.04;100.00;101678.72;4956233;28;20037;-81
2023/02/26 06:38:11;;;;;;;6.72;1.23;;;;;;;2.00;100.00;101679.72;4976006;28;20698;-81
2023/02/26 06:40:36;;;;;;;5.90;1.08;;;;;;;1.94;100.00;101676.44;4975641;28;20472;-81
2023/02/26 06:43:02;;;;;;;8.48;1.80;;;;;;;1.86;100.00;101673.28;4955991;28;20118;-81
2023/02/26 06:45:28;;;;;;;5.57;1.27;;;;;;;1.74;100.00;101685.00;4973367;28;20042;-81
2023/02/26 06:47:54;;;;;;;7.45;1.17;;;;;;;1.66;100.00;101694.84;4951153;28;20034;-81
2023/02/26 06:50:20;;;;;;;4.70;1.30;;;;;;;1.65;100.00;101693.16;4959074;28;20185;-81
2023/02/26 06:52:46;;;;;;;5.35;1.00;;;;;;;1.64;100.00;101699.28;4962962;28;20097;-81
2023/02/26 06:55:12;;;;;;;6.97;1.23;;;;;;;1.64;100.00;101704.50;4954812;28;20041;-81
2023/02/26 06:57:37;;;;;;;7.93;1.60;;;;;;;1.63;100.00;101721.00;4974433;28;20035;-81
2023/02/26 07:00:05;;;;;;;7.28;1.40;;;;;;;1.59;100.00;101721.13;4929038;28;20070;-81
2023/02/26 07:02:31;;;;;;;4.55;1.17;;;;;;;1.53;100.00;101725.72;4938497;28;20038;-79
2023/02/26 07:04:57;;;;;;;8.23;1.10;;;;;;;1.47;100.00;101729.38;4975245;28;20035;-79
2023/02/26 07:07:22;;;;;;;6.47;1.00;;;;;;;1.42;100.00;101744.34;4940707;28;20089;-80
2023/02/26 07:09:48;;;;;;;6.55;1.30;;;;;;;1.40;100.00;101744.34;4973475;28;20033;-79
2023/02/26 07:12:14;;;;;;;5.88;1.20;;;;;;;1.42;100.00;101745.16;4968955;28;20483;-79
2023/02/26 07:14:41;;;;;;;4.88;1.27;;;;;;;1.46;100.00;101756.34;4977347;28;20049;-79
2023/02/26 07:17:08;;;;;;;4.47;0.93;;;;;;;1.51;100.00;101754.44;4938145;28;20039;-79
2023/02/26 07:19:34;;;;;;;4.45;1.80;;;;;;;1.56;100.00;101760.31;4951338;28;20518;-79
2023/02/26 07:22:00;;;;;;;9.43;1.13;;;;;;;1.58;100.00;101755.91;4965649;28;20046;-79
2023/02/26 07:24:26;;;;;;;3.25;0.75;;;;;;;1.60;100.00;101767.16;4971563;28;20042;-79
2023/02/26 07:26:51;;;;;;;4.60;0.95;;;;;;;1.59;100.00;101762.00;4950081;28;20407;-79
2023/02/26 07:29:17;;;;;;;4.65;1.30;;;;;;;1.59;100.00;101760.22;4953009;28;20097;-79
2023/02/26 07:31:43;;;;;;;5.95;1.20;;;;;;;1.61;100.00;101765.38;4969878;28;20038;-79
2023/02/26 07:34:09;;;;;;;5.65;0.65;;;;;;;1.62;100.00;101772.31;4935748;28;20034;-79
2023/02/26 07:36:35;;;;;;;4.95;1.10;;;;;;;1.68;100.00;101779.91;4938422;28;20570;-79
2023/02/26 07:39:02;;;;;;;3.63;1.08;;;;;;;1.77;100.00;101781.34;4973644;28;20103;-79
2023/02/26 07:41:27;;;;;;;8.00;1.83;;;;;;;1.85;100.00;101781.06;4954941;28;20035;-79
2023/02/26 07:43:53;;;;;;;8.48;1.23;;;;;;;1.92;100.00;101781.72;4970795;28;20042;-80
2023/02/26 07:46:19;;;;;;;5.40;0.82;;;;;;;1.99;100.00;101783.22;4954133;28;20436;-79
2023/02/26 07:48:45;;;;;;;4.93;1.05;;;;;;;2.07;100.00;101788.97;4970755;28;20502;-79
2023/02/26 07:51:10;;;;;;;4.32;0.98;;;;;;;2.14;100.00;101793.97;4940976;28;20038;-79
2023/02/26 07:53:36;;;;;;;7.28;1.30;;;;;;;2.27;100.00;101802.22;4951901;28;20046;-79
2023/02/26 07:56:02;;;;;;;4.93;0.77;;;;;;;2.37;100.00;101806.19;4936918;28;20432;-79
2023/02/26 07:58:28;;;;;;;8.80;1.23;;;;;;;2.44;100.00;101812.00;4954581;28;20806;-79
2023/02/26 08:00:54;;;;;;;4.57;0.90;;;;;;;2.43;100.00;101813.78;4950470;28;20033;-79
2023/02/26 08:03:20;;;;;;;15.45;3.53;;;;;;;2.38;100.00;101818.31;4952739;28;20034;-79
2023/02/26 08:05:46;;;;;;;7.32;1.05;;;;;;;2.33;100.00;101815.88;4934643;28;20133;-79
2023/02/26 08:08:12;;;;;;;5.30;0.73;;;;;;;2.35;100.00;101808.88;4952704;28;20117;-79
2023/02/26 08:10:40;;;;;;;2.88;0.80;;;;;;;2.44;100.00;101819.84;4937709;28;20026;-79
2023/02/26 08:13:06;;;;;;;4.85;0.75;;;;;;;2.54;100.00;101818.59;4967772;28;20043;-79
2023/02/26 08:15:32;;;;;;;6.18;0.98;;;;;;;2.59;100.00;101821.03;4933731;28;20046;-79
2023/02/26 08:17:57;;;;;;;3.33;0.80;;;;;;;2.53;100.00;101826.50;4936103;28;20387;-78
2023/02/26 08:20:23;;;;;;;6.68;1.25;;;;;;;2.44;100.00;101831.13;4951834;28;20030;-79
2023/02/26 08:22:50;;;;;;;6.63;1.52;;;;;;;2.48;100.00;101834.50;4954301;28;20117;-79
2023/02/26 08:25:17;;;;;;;13.25;3.13;;;;;;;2.62;100.00;101838.34;4968873;28;20043;-79
2023/02/26 08:27:43;;;;;;;7.88;1.13;;;;;;;2.81;100.00;101838.50;4970280;28;20030;-79
2023/02/26 08:30:09;;;;;;;7.35;1.58;;;;;;;3.02;100.00;101841.19;4943112;28;20894;-79
2023/02/26 08:32:35;;;;;;;6.30;1.25;;;;;;;3.19;100.00;101836.16;4955693;28;20039;-79
2023/02/26 08:35:01;;;;;;;6.25;1.63;;;;;;;3.25;100.00;101836.81;4973171;28;20038;-78
2023/02/26 08:37:27;;;;;;;7.97;1.30;;;;;;;3.30;100.00;101832.22;4974305;28;20034;-79
2023/02/26 08:39:53;;;;;;;6.18;1.60;;;;;;;3.36;100.00;101842.44;4956737;28;20033;-79
2023/02/26 08:42:19;;;;;;;4.22;1.10;;;;;;;3.31;100.00;101847.03;4944808;28;20138;-79
2023/02/26 08:44:48;;;;;;;3.00;1.13;;;;;;;3.33;100.00;101842.56;4940661;28;20045;-79
2023/02/26 08:47:14;;;;;;;3.55;1.00;;;;;;;3.40;100.00;101844.03;4976321;28;20031;-79
2023/02/26 08:49:40;;;;;;;4.70;1.00;;;;;;;3.49;100.00;101847.19;4956286;28;20092;-79
2023/02/26 08:52:06;;;;;;;4.82;0.80;;;;;;;3.62;100.00;101852.75;4974559;28;20042;-79
2023/02/26 08:54:31;;;;;;;6.65;1.10;;;;;;;3.69;100.00;101855.06;4956155;28;20042;-79
2023/02/26 08:56:57;;;;;;;4.97;1.20;;;;;;;3.83;100.00;101853.63;4955638;28;20495;-79
2023/02/26 08:59:24;;;;;;;9.98;1.38;;;;;;;3.97;100.00;101848.66;4949489;28;20097;-79
2023/02/26 09:01:50;;;;;;;4.40;1.05;;;;;;;4.02;100.00;101850.19;4969852;28;20464;-78
2023/02/26 09:04:16;;;;;;;6.70;1.50;;;;;;;4.04;100.00;101849.25;4948156;28;20460;-79
2023/02/26 09:06:42;;;;;;;7.95;2.38;;;;;;;4.14;100.00;101854.06;4968840;28;20042;-79
2023/02/26 09:09:08;;;;;;;6.00;1.70;;;;;;;4.28;100.00;101850.84;4933952;28;20042;-79
2023/02/26 09:11:35;;;;;;;6.88;1.73;;;;;;;4.45;100.00;101850.06;4966387;28;20039;-79
2023/02/26 09:14:03;;;;;;;12.85;2.05;;;;;;;4.56;100.00;101846.97;4954567;28;20046;-78
2023/02/26 09:16:30;;;;;;;9.32;1.50;;;;;;;4.69;100.00;101858.59;4972268;28;20039;-79
2023/02/26 09:18:57;;;;;;;4.72;1.20;;;;;;;4.76;100.00;101867.00;4936661;28;20058;-78
2023/02/26 09:21:23;;;;;;;4.95;1.20;;;;;;;4.80;100.00;101862.47;4947455;28;20344;-79
2023/02/26 09:23:48;;;;;;;11.20;1.92;;;;;;;4.94;100.00;101875.78;4935646;28;20190;-78
2023/02/26 09:26:14;;;;;;;3.67;0.80;;;;;;;4.97;100.00;101883.50;4950506;28;20479;-78
2023/02/26 09:28:41;;;;;;;6.03;1.00;;;;;;;5.01;100.00;101878.97;4970584;28;20026;-79
2023/02/26 09:31:07;;;;;;;9.13;1.40;;;;;;;5.13;100.00;101882.78;4954647;28;20035;-78
2023/02/26 09:33:33;;;;;;;4.13;0.75;;;;;;;5.12;100.00;101888.09;4970172;28;20862;-78
2023/02/26 09:35:59;;;;;;;6.20;0.80;;;;;;;5.10;100.00;101893.41;4952156;28;20030;-78
2023/02/26 09:38:25;;;;;;;2.25;0.60;;;;;;;4.85;100.00;101891.94;4922151;28;20764;-78
2023/02/26 09:41:02;;;;;;;4.20;0.82;;;;;;;4.92;100.00;101893.34;4952467;28;20109;-78
2023/02/26 09:43:41;;;;;;;11.40;0.90;;;;;;;4.88;100.00;101907.50;4972387;28;20538;-78
2023/02/26 09:46:27;;;;;;;8.77;1.20;;;;;;;4.81;100.00;101903.50;4953924;28;20034;-78
2023/02/26 09:49:06;;;;;;;1.73;0.60;;;;;;;4.83;100.00;101910.34;4943570;28;20054;-80
2023/02/26 09:51:34;;;;;;;7.68;0.93;;;;;;;4.82;100.00;101907.81;4922494;28;20042;-78
2023/02/26 09:54:04;;;;;;;2.47;0.52;;;;;;;4.76;100.00;101911.53;4952772;28;20129;-78
2023/02/26 09:56:35;;;;;;;4.28;0.77;;;;;;;4.82;100.00;101911.28;4948974;28;20041;-78
2023/02/26 09:59:01;;;;;;;5.93;0.60;;;;;;;5.03;100.00;101912.97;4968802;28;20050;-80
2023/02/26 10:01:42;;;;;;;5.35;0.65;;;;;;;5.15;100.00;101914.16;4947249;28;20030;-77
2023/02/26 10:04:42;;;;;;;7.25;0.43;;;;;;;5.28;100.00;101911.81;4945977;28;20116;-78
2023/02/26 10:07:36;;;;;;;3.28;0.70;;;;;;;5.56;100.00;101918.34;4934629;28;20042;-78
2023/02/26 10:10:09;;;;;;;17.40;3.33;;;;;;;5.59;100.00;101918.19;4931140;28;20123;-78
2023/02/26 10:12:39;;;;;;;4.07;0.70;;;;;;;5.36;100.00;101921.94;4953859;28;20031;-81
2023/02/26 10:15:12;;;;;;;4.53;0.60;;;;;;;5.48;100.00;101931.81;4938523;28;20097;-80
2023/02/26 10:17:49;;;;;;;1.83;0.32;;;;;;;5.37;100.00;101923.66;4942513;28;20035;-80
2023/02/26 10:20:22;;;;;;;3.45;0.38;;;;;;;5.51;100.00;101926.44;4919884;28;20039;-78
2023/02/26 10:23:18;;;;;;;4.25;0.70;;;;;;;5.39;100.00;101922.63;4954739;28;20065;-78
2023/02/26 10:25:48;;;;;;;8.98;0.82;;;;;;;5.42;100.00;101921.63;4973715;28;20093;-78
2023/02/26 10:28:31;;;;;;;4.70;0.40;;;;;;;5.54;100.00;101928.06;4968396;28;20043;-80
2023/02/26 10:31:03;;;;;;;2.05;0.50;;;;;;;5.63;100.00;101935.50;4955584;28;20039;-78
2023/02/26 10:33:39;;;;;;;5.13;0.90;;;;;;;5.53;100.00;101942.09;4940218;28;20035;-78
2023/02/26 10:36:18;;;;;;;6.10;1.45;;;;;;;5.70;100.00;101939.50;4970500;28;20031;-78
2023/02/26 10:38:48;;;;;;;6.57;0.85;;;;;;;5.90;100.00;101942.94;4953984;28;20042;-78
2023/02/26 10:41:19;;;;;;;8.10;0.77;;;;;;;6.12;100.00;101947.13;4932858;28;20030;-78
2023/02/26 10:43:58;;;;;;;6.75;0.90;;;;;;;6.03;100.00;101947.56;4949883;28;20097;-78
2023/02/26 10:46:42;;;;;;;3.17;0.75;;;;;;;6.01;100.00;101952.88;4957470;28;20038;-78
2023/02/26 10:49:33;;;;;;;4.32;0.88;;;;;;;5.69;100.00;101957.94;4956786;28;20471;-78
2023/02/26 10:52:10;;;;;;;2.88;0.45;;;;;;;5.43;100.00;101949.56;4940200;28;20045;-78
2023/02/26 10:54:40;;;;;;;6.25;0.70;;;;;;;5.34;100.00;101958.72;4957339;28;20030;-78
2023/02/26 10:57:28;;;;;;;3.22;0.50;;;;;;;5.26;100.00;101953.81;4956018;28;20077;-78
2023/02/26 10:59:54;;;;;;;3.53;0.65;;;;;;;5.13;100.00;101957.97;4953206;28;20051;-78
2023/02/26 11:02:41;;;;;;;4.28;0.80;;;;;;;5.20;100.00;101954.13;4954934;29;20502;-78
2023/02/26 11:05:20;;;;;;;4.90;0.65;;;;;;;5.36;100.00;101964.75;4954004;29;20118;-78
2023/02/26 11:07:54;;;;;;;7.00;1.20;;;;;;;5.40;100.00;101966.28;4968371;28;20043;-78
2023/02/26 11:10:24;;;;;;;3.45;0.50;;;;;;;5.39;100.00;101976.84;4960466;28;20427;-78
2023/02/26 11:12:51;;;;;;;6.50;0.95;;;;;;;5.64;100.00;101975.69;4953529;28;20090;-78
2023/02/26 11:15:21;;;;;;;4.72;0.80;;;;;;;5.59;100.00;101974.13;4937046;29;20050;-80
2023/02/26 11:17:52;;;;;;;10.27;0.82;;;;;;;5.63;100.00;101971.34;4922996;29;20039;-78
2023/02/26 11:20:23;;;;;;;7.13;0.90;;;;;;;5.81;100.00;101962.59;4946079;28;20385;-78
2023/02/26 11:22:55;;;;;;;2.50;0.80;;;;;;;5.94;100.00;101968.09;4962678;28;20506;-78
2023/02/26 11:25:24;;;;;;;3.80;1.02;;;;;;;6.03;100.00;101966.78;4937547;29;20050;-78
2023/02/26 11:27:56;;;;;;;3.55;0.57;;;;;;;6.12;100.00;101962.00;4938488;29;20043;-78
2023/02/26 11:30:28;;;;;;;2.67;0.95;;;;;;;5.99;100.00;101965.22;4935790;29;20476;-81
2023/02/26 11:32:57;;;;;;;5.63;1.15;;;;;;;5.98;100.00;101970.56;4954590;29;20042;-78
2023/02/26 11:35:25;;;;;;;3.63;0.70;;;;;;;5.96;100.00;101971.50;4953181;29;20058;-78
2023/02/26 11:38:01;;;;;;;5.70;0.82;;;;;;;6.02;100.00;101972.94;4960438;28;20561;-78
2023/02/26 11:40:38;;;;;;;6.45;1.13;;;;;;;5.83;100.00;101975.63;4944623;29;20122;-78